createdAt,value
2023-01-26T00:07:13.776Z,63.42
2023-01-26T00:17:26.374Z,63.07
2023-01-26T00:27:32.531Z,63.13
2023-01-26T00:37:37.496Z,63.34
2023-01-26T00:47:41.241Z,63.56
2023-01-26T00:57:45.045Z,63.66
2023-01-26T01:07:49.189Z,63.63
2023-01-26T01:17:52.975Z,63.56
2023-01-26T01:27:56.764Z,63.57
2023-01-26T01:38:00.902Z,63.79
2023-01-26T01:48:07.380Z,64.19
2023-01-26T01:58:15.144Z,64.55
2023-01-26T02:08:21.772Z,64.42
2023-01-26T02:18:31.944Z,64.35
2023-01-26T02:28:43.179Z,64.20
2023-01-26T02:39:33.327Z,63.96
2023-01-26T02:50:09.782Z,64.19
2023-01-26T03:01:37.719Z,64.10
2023-01-26T03:14:02.383Z,64.15
2023-01-26T03:26:15.513Z,64.23
2023-01-26T03:36:46.867Z,64.25
2023-01-26T03:47:15.029Z,64.34
2023-01-26T03:57:20.946Z,64.51
2023-01-26T04:07:45.915Z,64.45
2023-01-26T04:19:30.252Z,64.66
2023-01-26T04:31:54.935Z,64.95
2023-01-26T04:44:19.354Z,65.03
2023-01-26T04:56:43.797Z,65.19
2023-01-26T05:08:26.463Z,65.50
2023-01-26T05:20:50.925Z,65.67
2023-01-26T05:33:18.139Z,66.06
2023-01-26T05:45:42.021Z,66.29
2023-01-26T05:55:49.537Z,66.67
2023-01-26T06:05:58.229Z,66.61
2023-01-26T06:16:26.201Z,66.79
2023-01-26T06:26:30.260Z,66.96
2023-01-26T06:36:35.600Z,66.71
2023-01-26T06:47:03.561Z,66.32
2023-01-26T06:57:09.208Z,66.15
2023-01-26T07:07:40.621Z,66.12
2023-01-26T07:17:47.487Z,66.05
2023-01-26T07:27:59.508Z,65.94
2023-01-26T07:38:10.444Z,65.63
2023-01-26T07:48:17.087Z,65.79
2023-01-26T07:58:23.993Z,65.81
2023-01-26T08:08:30.549Z,65.85
2023-01-26T08:18:54.598Z,66.00
2023-01-26T08:28:58.736Z,66.17
2023-01-26T08:39:05.410Z,65.79
2023-01-26T08:49:19.927Z,65.85
2023-01-26T09:00:30.453Z,65.43
2023-01-26T09:12:19.200Z,64.59
2023-01-26T09:23:28.568Z,64.03
2023-01-26T09:35:01.250Z,63.31
2023-01-26T09:47:20.630Z,62.55
2023-01-26T09:59:45.340Z,62.61
2023-01-26T10:12:29.966Z,62.19
2023-01-26T10:24:37.121Z,61.85
2023-01-26T10:37:01.305Z,61.66
2023-01-26T10:48:52.916Z,61.53
2023-01-26T10:59:05.838Z,61.06
2023-01-26T11:09:14.548Z,60.81
2023-01-26T11:19:43.851Z,61.21
2023-01-26T11:30:22.436Z,61.27
2023-01-26T11:41:44.521Z,61.30
2023-01-26T11:52:37.756Z,61.18
2023-01-26T12:03:00.398Z,61.30
2023-01-26T12:15:05.636Z,61.27
2023-01-26T12:25:25.205Z,61.69
2023-01-26T12:35:58.342Z,61.90
2023-01-26T12:46:05.813Z,61.75
2023-01-26T12:56:18.671Z,61.57
2023-01-26T13:06:27.487Z,62.00
2023-01-26T13:16:35.507Z,61.95
2023-01-26T13:26:46.498Z,61.82
2023-01-26T13:37:29.337Z,61.84
2023-01-26T13:47:46.336Z,62.00
2023-01-26T13:58:10.387Z,62.42
2023-01-26T14:08:16.387Z,62.56
2023-01-26T14:18:23.031Z,62.36
2023-01-26T14:28:49.519Z,62.45
2023-01-26T14:50:40.104Z,62.26
2023-01-26T15:00:49.884Z,62.60
2023-01-26T15:12:04.398Z,62.44
2023-01-26T15:48:40.155Z,62.24
2023-01-26T15:58:44.039Z,62.65
2023-01-26T16:08:47.815Z,63.77
2023-01-26T16:18:51.400Z,64.41
2023-01-26T16:28:55.618Z,65.24
2023-01-26T16:38:59.352Z,65.78
2023-01-26T16:49:03.024Z,66.85
2023-01-26T16:59:40.976Z,67.88
2023-01-26T17:10:16.341Z,67.99
2023-01-26T17:20:20.288Z,68.27
2023-01-26T17:30:23.997Z,67.99
2023-01-26T17:40:28.993Z,67.42
2023-01-26T17:50:34.630Z,66.84
2023-01-26T18:00:39.388Z,66.64
2023-01-26T18:10:42.957Z,66.68
2023-01-26T18:20:48.455Z,66.65
2023-01-26T18:30:52.149Z,66.67
2023-01-26T18:40:55.777Z,66.40
2023-01-26T18:50:59.674Z,66.54
2023-01-26T19:01:11.670Z,66.35
2023-01-26T19:11:15.555Z,66.48
2023-01-26T19:21:24.723Z,67.15
2023-01-26T19:31:29.452Z,66.60
2023-01-26T19:42:11.151Z,65.95
2023-01-26T19:52:18.454Z,65.32
2023-01-26T20:02:22.877Z,64.93
2023-01-26T20:12:26.656Z,64.92
2023-01-26T20:22:35.318Z,65.08
2023-01-26T20:32:40.623Z,65.33
2023-01-26T20:42:46.220Z,65.59
2023-01-26T20:52:50.706Z,66.38
2023-01-26T21:02:54.443Z,67.06
2023-01-26T21:12:58.403Z,67.14
2023-01-26T21:23:04.885Z,67.24
2023-01-26T21:33:08.646Z,67.31
2023-01-26T21:43:12.244Z,67.51
2023-01-26T21:53:15.754Z,68.63
2023-01-26T22:03:19.473Z,69.79
2023-01-26T22:13:23.910Z,70.47
2023-01-26T22:23:34.482Z,70.80
2023-01-26T22:33:42.083Z,70.11
2023-01-26T22:43:50.000Z,69.43
2023-01-26T22:53:54.697Z,70.10
2023-01-26T23:04:00.365Z,70.25
2023-01-26T23:14:05.782Z,69.55
2023-01-26T23:24:09.451Z,69.09
2023-01-26T23:34:13.085Z,68.83
2023-01-26T23:44:18.516Z,68.57
2023-01-26T23:54:22.014Z,68.47
